Skip to main content Skip to accessibility
This website is not compatible with your web browser. You should install a newer browser. If you live in Jersey and need help upgrading call the States of Jersey web team on 440099.
Homegov.je

L'înformâtion et les sèrvices publyis pouor I'Île dé Jèrri

  • Choose the service you want to log in to:

  • gov.je

    Update your notification preferences

  • one.gov.je

    Access government and parish services

  • CAESAR

    Clear goods through customs or claim relief

  • Talentlink

    View or update your States of Jersey job application

Local METARs

METAR EGJJ 211250Z 12011KT CAVOK 24/15 Q1017

METAR EGJB 211250Z 11010KT 9999 FEW040 23/14 Q1017

METAR EGJA 211250Z 11007KT 9999 FEW042 22/// Q1017

METAR LFRD 211300Z AUTO 18008KT CAVOK 24/15 Q1017 TEMPO 4000 TSRA BKN050CB

METAR LFRC 211300Z AUTO 09008KT CAVOK 22/13 Q1018 TEMPO 4000 TSRA BKN050CB

 

 

 

​Times are in Greenwich Mean Time (GMT) and not British Summer Time (BST). They will be one hour different during BST.

Back to top
rating button